Eaton, Ohio
Current Conditions -  °F | °C
As of 2:53 PM on Thursday 25 Dec 2014 (Local Time) from KMGY Reporting Station
Overcast Overcast  
Wind Chill: 33°   Ceiling: 2200
Heat Index: 40°   Visibility: 10mi
Dew Point: 32°   Wind: 10mph
Humidity: 73%   Direction: 230°SW
Pressure: 30.09"   Gusts: NA
Location:  39.75°N, 84.64°W
Report Text: KMGY 251953Z AUTO 23009KT 10SM OVC022 04/00 A3009 RMK AO2 SLP196 T00440000 $
Loading
Personal Weather Stations






























Interactive Weather Map New forecast layout! Learn more

10-Day Weather Forecast

Advertisements
Track Severe Weather on mobile